createdAt,value
2022-11-08T00:01:39.706Z,2.67
2022-11-08T00:07:29.148Z,3.07
2022-11-08T00:10:19.136Z,3.03
2022-11-08T00:13:25.833Z,2.50
2022-11-08T00:16:10.384Z,3.10
2022-11-08T00:18:56.047Z,3.03
2022-11-08T00:21:32.210Z,2.63
2022-11-08T00:23:58.715Z,2.43
2022-11-08T00:29:25.436Z,2.77
2022-11-08T00:31:51.829Z,2.77
2022-11-08T00:34:40.172Z,2.60
2022-11-08T00:37:14.500Z,2.60
2022-11-08T00:39:51.801Z,3.50
2022-11-08T00:42:28.429Z,2.83
2022-11-08T00:44:54.800Z,2.40
2022-11-08T00:47:21.483Z,2.60
2022-11-08T00:49:53.604Z,2.33
2022-11-08T00:55:13.896Z,2.60
2022-11-08T00:57:58.587Z,2.40
2022-11-08T01:00:35.360Z,2.40
2022-11-08T01:03:40.199Z,2.60
2022-11-08T01:06:08.350Z,2.37
2022-11-08T01:09:11.446Z,2.53
2022-11-08T01:11:51.278Z,2.73
2022-11-08T01:14:17.696Z,2.60
2022-11-08T01:16:59.971Z,2.50
2022-11-08T01:19:29.222Z,2.53
2022-11-08T01:21:55.855Z,2.80
2022-11-08T01:24:27.024Z,3.27
2022-11-08T01:27:10.192Z,2.70
2022-11-08T01:30:00.485Z,2.47
2022-11-08T01:33:19.474Z,3.13
2022-11-08T01:36:01.439Z,2.03
2022-11-08T01:38:58.431Z,2.20
2022-11-08T01:41:25.690Z,2.90
2022-11-08T01:44:01.427Z,2.50
2022-11-08T01:46:35.467Z,2.77
2022-11-08T01:49:42.268Z,2.43
2022-11-08T01:52:27.176Z,2.20
2022-11-08T01:54:56.043Z,2.20
2022-11-08T01:57:36.751Z,2.37
2022-11-08T02:00:07.961Z,2.30
2022-11-08T02:02:39.366Z,3.17
2022-11-08T02:05:25.404Z,2.60
2022-11-08T02:08:40.603Z,2.20
2022-11-08T02:14:03.285Z,2.47
2022-11-08T02:16:29.843Z,2.80
2022-11-08T02:19:14.188Z,2.53
2022-11-08T02:21:56.816Z,2.73
2022-11-08T02:24:31.838Z,2.37
2022-11-08T02:27:02.372Z,2.80
2022-11-08T02:30:05.675Z,2.13
2022-11-08T02:33:00.391Z,2.80
2022-11-08T02:35:27.758Z,2.50
2022-11-08T02:37:56.982Z,2.30
2022-11-08T02:40:23.483Z,2.47
2022-11-08T02:42:50.237Z,2.77
2022-11-08T02:45:16.650Z,2.40
2022-11-08T02:47:59.799Z,2.00
2022-11-08T02:50:26.174Z,2.20
2022-11-08T02:52:52.595Z,2.00
2022-11-08T02:55:18.970Z,2.53
2022-11-08T02:57:45.588Z,2.37
2022-11-08T03:00:22.893Z,2.90
2022-11-08T03:02:59.403Z,2.03
2022-11-08T03:05:26.955Z,2.30
2022-11-08T03:07:54.520Z,2.47
2022-11-08T03:10:22.025Z,2.37
2022-11-08T03:13:17.095Z,2.60
2022-11-08T03:15:57.927Z,3.73
2022-11-08T03:18:32.247Z,2.07
2022-11-08T03:21:11.828Z,2.30
2022-11-08T03:24:01.065Z,1.90
2022-11-08T03:26:27.464Z,2.50
2022-11-08T03:28:54.114Z,2.30
2022-11-08T03:31:37.019Z,2.23
2022-11-08T03:34:11.314Z,3.10
2022-11-08T03:37:08.315Z,2.50
2022-11-08T03:39:38.403Z,2.27
2022-11-08T03:42:08.312Z,2.30
2022-11-08T03:44:58.704Z,2.60
2022-11-08T03:47:25.591Z,2.07
2022-11-08T03:49:52.130Z,2.50
2022-11-08T03:52:18.798Z,3.30
2022-11-08T03:54:48.247Z,2.47
2022-11-08T03:57:16.074Z,2.30
2022-11-08T03:59:42.645Z,2.63
2022-11-08T04:02:15.297Z,2.60
2022-11-08T04:05:02.309Z,2.63
2022-11-08T04:10:30.009Z,2.43
2022-11-08T04:13:18.813Z,2.73
2022-11-08T04:15:46.599Z,2.67
2022-11-08T04:18:31.852Z,3.00
2022-11-08T04:21:19.150Z,2.30
2022-11-08T04:23:47.565Z,2.50
2022-11-08T04:26:13.967Z,3.00
2022-11-08T04:28:42.096Z,2.83
2022-11-08T04:40:24.893Z,3.87
2022-11-08T04:42:51.449Z,3.07
2022-11-08T04:45:18.383Z,3.37
2022-11-08T04:47:54.915Z,3.30
2022-11-08T04:50:25.551Z,2.60
2022-11-08T04:52:53.722Z,2.40
2022-11-08T04:55:21.191Z,2.77
2022-11-08T04:57:57.105Z,2.63
2022-11-08T05:00:23.452Z,3.10
2022-11-08T05:03:15.484Z,2.50
2022-11-08T05:06:05.445Z,2.43
2022-11-08T05:09:00.180Z,2.37
2022-11-08T05:11:28.584Z,3.10
2022-11-08T05:13:55.520Z,2.37
2022-11-08T05:16:29.335Z,2.43
2022-11-08T05:19:00.465Z,2.80
2022-11-08T05:21:54.825Z,3.00
2022-11-08T05:24:23.808Z,2.70
2022-11-08T05:26:53.394Z,2.33
2022-11-08T05:32:09.605Z,2.90
2022-11-08T05:34:36.032Z,2.43
2022-11-08T05:37:06.121Z,3.90
2022-11-08T05:39:32.962Z,2.77
2022-11-08T05:41:59.330Z,2.50
2022-11-08T05:44:25.901Z,2.97
2022-11-08T05:46:52.256Z,2.70
2022-11-08T05:49:18.646Z,2.40
2022-11-08T05:51:44.976Z,3.00
2022-11-08T05:54:13.194Z,2.73
2022-11-08T05:56:39.782Z,3.00
2022-11-08T05:59:06.439Z,2.53
2022-11-08T06:01:33.202Z,2.70
2022-11-08T06:03:59.763Z,2.87
2022-11-08T06:06:26.436Z,2.90
2022-11-08T06:08:54.167Z,2.63
2022-11-08T06:11:24.281Z,2.27
2022-11-08T06:13:52.803Z,2.80
2022-11-08T06:16:21.126Z,2.77
2022-11-08T06:18:47.759Z,3.03
2022-11-08T06:21:17.217Z,2.23
2022-11-08T06:23:54.780Z,2.53
2022-11-08T06:26:24.663Z,2.70
2022-11-08T06:28:51.344Z,3.27
2022-11-08T06:31:17.890Z,2.70
2022-11-08T06:33:48.974Z,2.70
2022-11-08T06:36:18.007Z,2.93
2022-11-08T06:38:55.344Z,3.23
2022-11-08T06:41:23.897Z,3.07
2022-11-08T06:43:53.038Z,2.40
2022-11-08T06:46:21.736Z,3.17
2022-11-08T06:48:50.903Z,2.30
2022-11-08T06:51:20.756Z,2.90
2022-11-08T06:54:02.255Z,4.17
2022-11-08T06:57:12.467Z,4.60
2022-11-08T06:59:54.842Z,4.10
2022-11-08T07:02:21.311Z,3.10
2022-11-08T07:04:58.893Z,2.50
2022-11-08T07:07:25.435Z,2.13
2022-11-08T07:09:51.836Z,2.70
2022-11-08T07:12:18.398Z,3.30
2022-11-08T07:14:44.982Z,2.73
2022-11-08T07:17:11.351Z,2.53
2022-11-08T07:19:37.944Z,2.77
2022-11-08T07:22:04.436Z,2.57
2022-11-08T07:24:38.302Z,2.33
2022-11-08T07:27:04.965Z,2.50
2022-11-08T07:32:20.170Z,2.80
2022-11-08T07:35:02.129Z,3.00
2022-11-08T07:37:28.568Z,2.60
2022-11-08T07:39:54.966Z,2.97
2022-11-08T07:43:10.069Z,3.20
2022-11-08T07:46:03.940Z,3.40
2022-11-08T07:48:31.447Z,3.10
2022-11-08T07:51:13.386Z,2.80
2022-11-08T07:53:39.823Z,2.50
2022-11-08T07:56:09.209Z,2.50
2022-11-08T07:58:35.757Z,2.23
2022-11-08T08:01:09.423Z,2.97
2022-11-08T08:03:35.870Z,2.70
2022-11-08T08:06:02.570Z,2.40
2022-11-08T08:08:30.062Z,3.30
2022-11-08T08:11:07.048Z,2.80
2022-11-08T08:13:39.066Z,2.47
2022-11-08T08:16:05.598Z,2.80
2022-11-08T08:18:32.081Z,2.53
2022-11-08T08:20:58.712Z,2.60
2022-11-08T08:23:25.165Z,2.73
2022-11-08T08:25:52.905Z,2.40
2022-11-08T08:28:19.447Z,2.73
2022-11-08T08:30:45.877Z,2.83
2022-11-08T08:33:34.001Z,2.20
2022-11-08T08:36:01.854Z,2.47
2022-11-08T08:38:28.957Z,3.10
2022-11-08T08:41:03.227Z,2.70
2022-11-08T08:43:32.605Z,2.80
2022-11-08T08:46:08.227Z,2.80
2022-11-08T08:48:40.160Z,2.73
2022-11-08T08:51:07.076Z,2.50
2022-11-08T08:56:18.268Z,2.67
2022-11-08T09:04:22.956Z,2.50
2022-11-08T09:06:52.220Z,2.50
2022-11-08T09:09:18.649Z,2.93
2022-11-08T09:11:49.848Z,2.30
2022-11-08T09:14:16.564Z,2.53
2022-11-08T09:16:43.003Z,2.77
2022-11-08T09:19:13.274Z,2.33
2022-11-08T09:21:50.930Z,2.67
2022-11-08T09:24:17.912Z,2.40
2022-11-08T09:26:54.272Z,2.13
2022-11-08T09:29:30.585Z,2.40
2022-11-08T09:31:57.149Z,2.60
2022-11-08T09:34:26.126Z,2.07
2022-11-08T09:36:52.880Z,2.50
2022-11-08T09:39:28.661Z,2.20
2022-11-08T09:42:18.329Z,2.30
2022-11-08T09:45:22.372Z,2.40
2022-11-08T09:47:56.081Z,2.00
2022-11-08T09:50:35.117Z,2.13
2022-11-08T09:53:35.615Z,2.50
2022-11-08T09:56:14.099Z,2.47
2022-11-08T09:58:50.544Z,2.10
2022-11-08T10:01:17.382Z,2.10
2022-11-08T10:04:05.563Z,1.93
2022-11-08T10:06:46.394Z,2.10
2022-11-08T10:09:15.964Z,2.00
2022-11-08T10:14:54.344Z,2.10
2022-11-08T10:18:09.324Z,2.00
2022-11-08T10:21:23.795Z,2.53
2022-11-08T10:24:19.757Z,2.80
2022-11-08T10:26:46.358Z,2.20
2022-11-08T10:29:21.974Z,2.30
2022-11-08T10:32:07.643Z,1.63
2022-11-08T10:34:43.726Z,1.97
2022-11-08T10:37:27.456Z,2.57
2022-11-08T10:40:03.904Z,2.30
2022-11-08T10:42:59.022Z,1.70
2022-11-08T10:45:25.482Z,2.07
2022-11-08T10:47:53.153Z,1.90
2022-11-08T10:50:26.079Z,1.80
2022-11-08T10:52:57.341Z,2.20
2022-11-08T10:55:33.642Z,2.10
2022-11-08T10:58:00.499Z,2.10
2022-11-08T11:00:33.269Z,1.90
2022-11-08T11:03:05.779Z,1.50
2022-11-08T11:05:38.075Z,2.00
2022-11-08T11:08:10.419Z,2.57
2022-11-08T11:10:58.396Z,2.10
2022-11-08T11:16:01.289Z,2.33
2022-11-08T11:18:46.073Z,1.80
2022-11-08T11:21:16.047Z,1.63
2022-11-08T11:23:45.766Z,2.13
2022-11-08T11:26:48.099Z,1.90
2022-11-08T11:29:18.724Z,1.87
2022-11-08T11:31:47.804Z,1.80
2022-11-08T11:34:19.696Z,1.90
2022-11-08T11:37:10.550Z,1.73
2022-11-08T11:40:00.200Z,2.63
2022-11-08T11:42:52.597Z,1.80
2022-11-08T11:45:25.785Z,1.80
2022-11-08T11:47:55.859Z,1.90
2022-11-08T11:50:39.858Z,2.10
2022-11-08T11:53:43.524Z,1.73
2022-11-08T11:56:38.452Z,1.90
2022-11-08T11:59:39.783Z,1.77
2022-11-08T12:02:12.320Z,1.90
2022-11-08T12:05:16.376Z,2.20
2022-11-08T12:07:58.169Z,1.53
2022-11-08T12:10:39.227Z,1.87
2022-11-08T12:13:32.367Z,1.30
2022-11-08T12:16:14.181Z,1.63
2022-11-08T12:18:53.586Z,2.10
2022-11-08T12:21:31.544Z,2.03
2022-11-08T12:24:26.142Z,1.90
2022-11-08T12:27:30.283Z,1.70
2022-11-08T12:30:08.748Z,2.77
2022-11-08T12:33:13.545Z,1.90
2022-11-08T12:36:01.752Z,2.17
2022-11-08T12:38:50.707Z,2.37
2022-11-08T12:41:34.618Z,1.80
2022-11-08T12:44:31.415Z,1.90
2022-11-08T12:47:06.966Z,2.03
2022-11-08T12:49:46.961Z,1.63
2022-11-08T12:52:35.300Z,1.70
2022-11-08T12:55:07.420Z,1.87
2022-11-08T12:57:34.236Z,1.73
2022-11-08T13:00:18.671Z,2.00
2022-11-08T13:03:23.477Z,1.67
2022-11-08T13:06:03.230Z,1.63
2022-11-08T13:08:52.886Z,1.60
2022-11-08T13:11:39.027Z,1.73
2022-11-08T13:14:05.496Z,1.40
2022-11-08T13:16:39.444Z,1.60
2022-11-08T13:19:06.686Z,2.00
2022-11-08T13:21:41.176Z,1.93
2022-11-08T13:24:37.906Z,1.70
2022-11-08T13:27:21.409Z,1.40
2022-11-08T13:29:47.891Z,1.60
2022-11-08T13:32:43.831Z,1.63
2022-11-08T13:35:37.557Z,1.73
2022-11-08T13:38:23.550Z,1.83
2022-11-08T13:41:11.971Z,1.90
2022-11-08T13:43:39.567Z,1.50
2022-11-08T13:46:30.297Z,1.70
2022-11-08T13:49:18.442Z,1.57
2022-11-08T13:51:46.041Z,1.40
2022-11-08T13:54:21.551Z,2.00
2022-11-08T13:56:56.404Z,1.50
2022-11-08T13:59:32.090Z,1.50
2022-11-08T14:01:59.238Z,1.60
2022-11-08T14:04:29.484Z,1.60
2022-11-08T14:07:04.945Z,1.90
2022-11-08T14:09:52.914Z,1.73
2022-11-08T14:12:34.554Z,1.67
2022-11-08T14:15:18.807Z,1.90
2022-11-08T14:18:11.248Z,1.50
2022-11-08T14:20:48.076Z,1.70
2022-11-08T14:23:28.051Z,1.60
2022-11-08T14:25:55.994Z,1.53
2022-11-08T14:28:26.059Z,1.60
2022-11-08T14:30:52.900Z,1.70
2022-11-08T14:33:21.250Z,1.93
2022-11-08T14:36:02.151Z,1.40
2022-11-08T14:38:32.308Z,1.50
2022-11-08T14:41:01.432Z,1.50
2022-11-08T14:43:29.575Z,1.50
2022-11-08T14:45:59.451Z,1.30
2022-11-08T14:48:31.162Z,1.77
2022-11-08T14:51:01.825Z,2.03
2022-11-08T14:53:46.772Z,1.70
2022-11-08T14:56:28.664Z,1.90
2022-11-08T14:58:59.395Z,1.47
2022-11-08T15:01:26.955Z,1.67
2022-11-08T15:04:08.649Z,1.97
2022-11-08T15:06:42.997Z,1.60
2022-11-08T15:09:21.551Z,1.90
2022-11-08T15:12:12.857Z,1.50
2022-11-08T15:15:05.971Z,1.47
2022-11-08T15:17:58.845Z,1.90
2022-11-08T15:20:25.428Z,1.80
2022-11-08T15:22:55.539Z,1.63
2022-11-08T15:25:37.136Z,2.30
2022-11-08T15:28:16.102Z,1.90
2022-11-08T15:30:43.954Z,1.50
2022-11-08T15:33:33.270Z,1.80
2022-11-08T15:36:00.086Z,1.60
2022-11-08T15:38:36.464Z,1.50
2022-11-08T15:41:05.358Z,1.87
2022-11-08T15:43:32.168Z,1.90
2022-11-08T15:46:03.616Z,1.60
2022-11-08T15:48:30.187Z,1.50
2022-11-08T15:50:56.916Z,1.80
2022-11-08T15:53:25.134Z,1.50
2022-11-08T15:56:02.142Z,2.20
2022-11-08T15:58:31.511Z,1.93
2022-11-08T16:01:00.748Z,1.97
2022-11-08T16:03:28.277Z,2.17
2022-11-08T16:06:03.989Z,1.80
2022-11-08T16:08:30.394Z,1.83
2022-11-08T16:11:01.192Z,3.30
2022-11-08T16:13:30.384Z,2.23
2022-11-08T16:15:58.264Z,1.87
2022-11-08T16:18:24.979Z,1.80
2022-11-08T16:20:51.353Z,1.40
2022-11-08T16:23:18.253Z,2.13
2022-11-08T16:25:47.858Z,2.07
2022-11-08T16:28:27.128Z,2.10
2022-11-08T16:30:53.596Z,2.00
2022-11-08T16:33:25.291Z,1.63
2022-11-08T16:36:15.140Z,1.57
2022-11-08T16:38:57.754Z,1.40
2022-11-08T16:41:25.449Z,1.47
2022-11-08T16:43:52.139Z,1.80
2022-11-08T16:46:22.882Z,2.10
2022-11-08T16:48:59.197Z,1.50
2022-11-08T16:51:25.763Z,1.67
2022-11-08T16:53:53.359Z,2.07
2022-11-08T16:56:19.824Z,1.80
2022-11-08T16:58:46.265Z,1.70
2022-11-08T17:01:32.919Z,1.50
2022-11-08T17:03:59.379Z,2.10
2022-11-08T17:06:25.799Z,1.83
2022-11-08T17:08:52.786Z,1.80
2022-11-08T17:11:21.932Z,1.80
2022-11-08T17:13:49.039Z,1.73
2022-11-08T17:16:16.321Z,2.07
2022-11-08T17:18:47.430Z,1.70
2022-11-08T17:21:43.107Z,2.03
2022-11-08T17:24:03.013Z,2.17
2022-11-08T17:26:29.396Z,1.87
2022-11-08T17:28:56.417Z,1.80
2022-11-08T17:31:22.761Z,1.60
2022-11-08T17:33:49.509Z,1.80
2022-11-08T17:36:15.846Z,1.73
2022-11-08T17:38:42.428Z,2.40
2022-11-08T17:41:13.188Z,2.00
2022-11-08T17:43:39.947Z,2.23
2022-11-08T17:46:07.013Z,1.90
2022-11-08T17:48:34.306Z,2.30
2022-11-08T17:51:00.824Z,2.33
2022-11-08T17:53:27.262Z,2.60
2022-11-08T17:55:57.254Z,2.20
2022-11-08T17:58:26.038Z,2.43
2022-11-08T18:00:57.809Z,2.40
2022-11-08T18:03:26.454Z,2.10
2022-11-08T18:05:58.096Z,2.30
2022-11-08T18:11:12.521Z,3.07
2022-11-08T18:13:39.272Z,2.67
2022-11-08T18:16:11.969Z,3.17
2022-11-08T18:18:41.789Z,2.20
2022-11-08T18:21:09.154Z,2.47
2022-11-08T18:23:47.210Z,1.90
2022-11-08T18:26:16.535Z,2.40
2022-11-08T18:28:44.970Z,2.20
2022-11-08T18:31:15.124Z,2.20
2022-11-08T18:33:42.497Z,1.97
2022-11-08T18:36:11.925Z,2.00
2022-11-08T18:38:57.883Z,2.17
2022-11-08T18:41:27.146Z,1.87
2022-11-08T18:43:54.295Z,2.00
2022-11-08T18:46:26.490Z,2.27
2022-11-08T18:48:53.549Z,2.20
2022-11-08T18:51:24.276Z,2.00
2022-11-08T18:53:54.175Z,1.60
2022-11-08T18:56:23.364Z,1.90
2022-11-08T18:58:50.705Z,2.10
2022-11-08T19:01:17.679Z,1.90
2022-11-08T19:03:44.303Z,2.20
2022-11-08T19:06:25.597Z,2.30
2022-11-08T19:08:55.774Z,2.10
2022-11-08T19:11:27.994Z,2.30
2022-11-08T19:13:54.430Z,1.90
2022-11-08T19:16:21.073Z,2.30
2022-11-08T19:18:49.673Z,2.00
2022-11-08T19:21:21.747Z,2.17
2022-11-08T19:23:50.224Z,2.33
2022-11-08T19:26:20.093Z,2.17
2022-11-08T19:28:54.816Z,1.93
2022-11-08T19:31:24.247Z,2.10
2022-11-08T19:33:57.046Z,2.60
2022-11-08T19:36:40.316Z,2.70
2022-11-08T19:39:06.734Z,1.93
2022-11-08T19:41:33.234Z,2.10
2022-11-08T19:43:59.877Z,2.00
2022-11-08T19:46:32.403Z,2.20
2022-11-08T19:49:01.875Z,2.33
2022-11-08T19:51:30.967Z,1.97
2022-11-08T19:53:59.950Z,2.33
2022-11-08T19:56:43.769Z,2.33
2022-11-08T19:59:13.326Z,2.10
2022-11-08T20:01:42.793Z,2.20
2022-11-08T20:04:11.302Z,2.20
2022-11-08T20:06:38.576Z,2.10
2022-11-08T20:09:09.958Z,1.80
2022-11-08T20:11:40.205Z,1.50
2022-11-08T20:14:07.829Z,1.90
2022-11-08T20:16:39.998Z,2.60
2022-11-08T20:19:16.788Z,1.73
2022-11-08T20:21:45.962Z,1.80
2022-11-08T20:24:18.765Z,1.83
2022-11-08T20:26:51.367Z,2.10
2022-11-08T20:29:18.589Z,1.90
2022-11-08T20:31:45.793Z,2.10
2022-11-08T20:34:26.793Z,2.03
2022-11-08T20:36:53.504Z,1.63
2022-11-08T20:39:20.376Z,2.47
2022-11-08T20:41:56.093Z,2.00
2022-11-08T20:44:24.057Z,2.30
2022-11-08T20:46:51.055Z,2.20
2022-11-08T20:49:17.519Z,1.87
2022-11-08T20:51:54.464Z,1.70
2022-11-08T20:54:20.863Z,2.17
2022-11-08T20:56:56.428Z,1.93
2022-11-08T20:59:25.395Z,2.23
2022-11-08T21:01:54.925Z,2.20
2022-11-08T21:04:21.472Z,1.90
2022-11-08T21:06:47.868Z,2.27
2022-11-08T21:09:36.278Z,2.20
2022-11-08T21:12:18.862Z,1.97
2022-11-08T21:14:50.660Z,2.17
2022-11-08T21:17:22.254Z,2.07
2022-11-08T21:19:52.944Z,2.37
2022-11-08T21:22:19.510Z,2.20
2022-11-08T21:24:48.030Z,1.97
2022-11-08T21:27:15.487Z,2.10
2022-11-08T21:29:45.385Z,2.23
2022-11-08T21:32:11.819Z,2.23
2022-11-08T21:34:39.701Z,2.10
2022-11-08T21:37:07.851Z,1.87
2022-11-08T21:39:34.231Z,2.10
2022-11-08T21:42:00.581Z,2.07
2022-11-08T21:44:27.053Z,2.40
2022-11-08T21:46:53.389Z,2.03
2022-11-08T21:49:19.811Z,2.17
2022-11-08T21:51:46.152Z,2.60
2022-11-08T21:54:12.586Z,2.00
2022-11-08T21:56:49.866Z,1.90
2022-11-08T21:59:16.272Z,2.17
2022-11-08T22:01:42.765Z,1.90
2022-11-08T22:04:09.256Z,2.10
2022-11-08T22:06:36.242Z,2.00
2022-11-08T22:09:02.830Z,2.00
2022-11-08T22:11:29.181Z,2.20
2022-11-08T22:13:58.496Z,2.20
2022-11-08T22:16:30.433Z,2.10
2022-11-08T22:19:04.627Z,2.50
2022-11-08T22:21:42.872Z,2.10
2022-11-08T22:24:16.993Z,2.40
2022-11-08T22:26:53.107Z,1.87
2022-11-08T22:29:20.209Z,2.23
2022-11-08T22:31:47.140Z,2.13
2022-11-08T22:34:13.825Z,2.23
2022-11-08T22:36:45.022Z,2.40
2022-11-08T22:39:17.990Z,1.87
2022-11-08T22:41:47.875Z,2.00
2022-11-08T22:44:15.145Z,2.07
2022-11-08T22:46:42.835Z,2.00
2022-11-08T22:49:10.025Z,2.30
2022-11-08T22:51:36.848Z,2.20
2022-11-08T22:54:09.183Z,2.10
2022-11-08T22:56:46.425Z,2.40
2022-11-08T22:59:12.940Z,2.33
2022-11-08T23:01:39.313Z,2.37
2022-11-08T23:04:05.910Z,2.23
2022-11-08T23:06:32.553Z,2.27
2022-11-08T23:08:59.222Z,2.27
2022-11-08T23:11:44.065Z,2.30
2022-11-08T23:14:35.488Z,2.20
2022-11-08T23:17:03.240Z,2.10
2022-11-08T23:19:48.540Z,2.63
2022-11-08T23:22:35.401Z,2.03
2022-11-08T23:25:01.984Z,2.43
2022-11-08T23:27:46.967Z,2.13
2022-11-08T23:30:34.621Z,2.03
2022-11-08T23:33:01.347Z,2.37
2022-11-08T23:35:28.063Z,2.00
2022-11-08T23:37:55.076Z,2.20
2022-11-08T23:40:40.822Z,2.20
2022-11-08T23:43:32.784Z,2.20
2022-11-08T23:46:06.362Z,2.17
2022-11-08T23:48:32.827Z,2.07
2022-11-08T23:50:59.409Z,1.97
2022-11-08T23:53:26.126Z,2.20
2022-11-08T23:55:54.042Z,2.80
2022-11-08T23:58:20.594Z,2.10
